Time;durP1;ratioP1;P1;durP2;ratioP2;P2;SDS_P1;SDS_P2;PMS_P1;PMS_P2;Temp;Humidity;BMP_temperature;BMP_pressure;BME280_temperature;BME280_humidity;BME280_pressure;Samples;Min_cycle;Max_cycle;Signal;HPM_P1;HPM_P2
2022/11/18 00:00:44;;;;;;;1.37;0.50;;;6.80;99.90;;;;;;5063039;28;20421;-66
2022/11/18 00:03:10;;;;;;;2.23;0.70;;;6.80;99.90;;;;;;5065055;28;20703;-66
2022/11/18 00:05:35;;;;;;;1.10;0.50;;;6.90;99.90;;;;;;5062714;28;20220;-66
2022/11/18 00:08:01;;;;;;;1.20;0.57;;;6.80;99.90;;;;;;5065791;28;20685;-66
2022/11/18 00:10:27;;;;;;;1.10;0.47;;;6.80;99.90;;;;;;5067077;28;20303;-66
2022/11/18 00:15:36;;;;;;;1.70;0.60;;;6.90;99.90;;;;;;5071199;28;20212;-66
2022/11/18 00:18:02;;;;;;;1.27;0.53;;;6.90;99.90;;;;;;5068097;28;20877;-66
2022/11/18 00:20:27;;;;;;;1.37;0.70;;;6.90;99.90;;;;;;5051172;28;20217;-66
2022/11/18 00:22:53;;;;;;;2.70;0.93;;;6.90;99.90;;;;;;5064069;28;20196;-66
2022/11/18 00:25:19;;;;;;;1.40;0.70;;;6.90;99.90;;;;;;5050910;28;20293;-66
2022/11/18 00:27:44;;;;;;;1.20;0.60;;;6.90;99.90;;;;;;5066708;28;20189;-66
2022/11/18 00:30:10;;;;;;;1.80;0.80;;;6.90;99.90;;;;;;5070516;28;20185;-66
2022/11/18 00:32:36;;;;;;;2.17;1.20;;;6.90;99.90;;;;;;5054496;28;20188;-66
2022/11/18 00:35:01;;;;;;;2.53;1.13;;;6.90;99.90;;;;;;5051532;28;20558;-66
2022/11/18 00:37:27;;;;;;;1.17;0.50;;;6.90;99.90;;;;;;5070027;28;20260;-66
2022/11/18 00:39:52;;;;;;;1.10;0.50;;;6.80;99.90;;;;;;5065263;28;20689;-66
2022/11/18 00:45:02;;;;;;;1.30;0.70;;;6.80;99.90;;;;;;5073317;28;20641;-66
2022/11/18 00:47:28;;;;;;;1.20;0.50;;;6.80;99.90;;;;;;5067225;28;20544;-66
2022/11/18 00:49:53;;;;;;;1.10;0.40;;;6.80;99.90;;;;;;5055898;28;20557;-66
2022/11/18 00:52:19;;;;;;;1.27;0.60;;;6.80;99.90;;;;;;5067160;28;20192;-66
2022/11/18 00:54:44;;;;;;;1.57;0.50;;;6.80;99.90;;;;;;5073952;28;20276;-66
2022/11/18 00:57:10;;;;;;;1.20;0.60;;;6.80;99.90;;;;;;5073910;28;20247;-66
2022/11/18 00:59:36;;;;;;;1.10;0.40;;;6.80;99.90;;;;;;5073822;28;20882;-66
2022/11/18 01:02:01;;;;;;;2.37;0.50;;;6.80;99.90;;;;;;5065316;28;20185;-66
2022/11/18 01:04:27;;;;;;;1.10;0.40;;;6.80;99.90;;;;;;5074152;28;20260;-66
2022/11/18 01:06:52;;;;;;;1.10;0.40;;;6.80;99.90;;;;;;5073585;28;20215;-67
2022/11/18 01:09:18;;;;;;;1.10;0.50;;;6.80;99.90;;;;;;5074009;28;20220;-66
2022/11/18 01:14:28;;;;;;;2.60;0.60;;;6.80;99.90;;;;;;5073227;28;20234;-66
2022/11/18 01:16:55;;;;;;;1.20;0.50;;;6.80;99.90;;;;;;5073734;28;20923;-66
2022/11/18 01:19:21;;;;;;;1.50;0.60;;;6.80;99.90;;;;;;5073132;28;20191;-66
2022/11/18 01:21:47;;;;;;;1.40;0.60;;;6.80;99.90;;;;;;5072851;28;20466;-66
2022/11/18 01:24:13;;;;;;;1.10;0.50;;;6.80;99.90;;;;;;5073097;28;21011;-66
2022/11/18 01:26:38;;;;;;;1.40;0.50;;;6.80;99.90;;;;;;5073545;28;20192;-66
2022/11/18 01:29:04;;;;;;;1.73;0.50;;;6.80;99.90;;;;;;5073124;28;20256;-66
2022/11/18 01:31:29;;;;;;;1.10;0.40;;;6.80;99.90;;;;;;5066384;28;20219;-66
2022/11/18 01:33:55;;;;;;;1.20;0.40;;;6.80;99.90;;;;;;5066083;28;20207;-66
2022/11/18 01:36:23;;;;;;;1.37;0.47;;;6.90;99.90;;;;;;5072268;28;20514;-66
2022/11/18 01:38:50;;;;;;;1.10;0.40;;;6.80;99.90;;;;;;5073220;28;20614;-66
2022/11/18 01:41:17;;;;;;;1.20;0.53;;;6.90;99.90;;;;;;5053338;28;20424;-67
2022/11/18 01:43:54;;;;;;;1.30;0.50;;;6.80;99.90;;;;;;5065858;28;20537;-66
2022/11/18 01:46:22;;;;;;;1.00;0.40;;;6.80;99.90;;;;;;5070892;28;20434;-66
2022/11/18 01:48:52;;;;;;;1.40;0.60;;;6.80;99.90;;;;;;5072830;28;20415;-66
2022/11/18 01:51:23;;;;;;;1.20;0.47;;;6.80;99.90;;;;;;5071570;28;20844;-66
2022/11/18 01:53:54;;;;;;;1.10;0.40;;;6.80;99.90;;;;;;5072546;28;20916;-66
2022/11/18 01:56:24;;;;;;;1.10;0.50;;;6.80;99.90;;;;;;5073155;28;21089;-66
2022/11/18 01:58:57;;;;;;;1.10;0.40;;;6.80;99.90;;;;;;5072297;28;20419;-66
2022/11/18 02:01:23;;;;;;;1.10;0.50;;;6.80;99.90;;;;;;5072106;28;20431;-66
2022/11/18 02:03:50;;;;;;;1.20;0.60;;;6.80;99.90;;;;;;5058946;28;20564;-66
2022/11/18 02:06:17;;;;;;;1.10;0.40;;;6.80;99.90;;;;;;5072455;28;20231;-66
2022/11/18 02:08:43;;;;;;;1.20;0.50;;;6.80;99.90;;;;;;5059418;28;20412;-66
2022/11/18 02:11:49;;;;;;;1.00;0.40;;;6.80;99.90;;;;;;5072675;28;20411;-66
2022/11/18 02:14:00;;;;;;;1.53;0.50;;;6.80;99.90;;;;;;5071940;28;20551;-66
2022/11/18 02:17:12;;;;;;;1.50;0.50;;;6.80;99.90;;;;;;5072582;28;20464;-66
2022/11/18 02:20:06;;;;;;;1.20;0.50;;;6.80;99.90;;;;;;5072258;28;20419;-66
2022/11/18 02:22:56;;;;;;;1.10;0.40;;;6.80;99.90;;;;;;5058392;28;20809;-66
2022/11/18 02:25:52;;;;;;;1.87;0.60;;;6.80;99.90;;;;;;5072292;28;20813;-66
2022/11/18 02:28:45;;;;;;;1.30;0.50;;;6.70;99.90;;;;;;5059669;28;20419;-67
2022/11/18 02:31:26;;;;;;;1.10;0.50;;;6.70;99.90;;;;;;5072313;28;20421;-66
2022/11/18 02:33:54;;;;;;;1.20;0.50;;;6.70;99.90;;;;;;5071586;28;20435;-66
2022/11/18 02:36:20;;;;;;;1.20;0.50;;;6.70;99.90;;;;;;5058828;28;21009;-66
2022/11/18 02:38:51;;;;;;;1.17;0.50;;;6.80;99.90;;;;;;5072013;28;20424;-66
2022/11/18 02:41:22;;;;;;;2.23;0.50;;;6.80;99.90;;;;;;5069534;28;20185;-66
2022/11/18 02:44:08;;;;;;;2.03;1.13;;;6.80;99.90;;;;;;5071243;28;20466;-66
2022/11/18 02:46:37;;;;;;;1.70;0.70;;;6.80;99.90;;;;;;5060269;28;20416;-66
2022/11/18 02:49:08;;;;;;;4.23;0.73;;;6.80;99.90;;;;;;5070773;28;20909;-66
2022/11/18 02:51:35;;;;;;;1.10;0.50;;;6.80;99.90;;;;;;5065393;28;20428;-66
2022/11/18 02:54:05;;;;;;;1.30;0.50;;;6.80;99.90;;;;;;5071029;28;20442;-66
2022/11/18 02:56:33;;;;;;;1.10;0.40;;;6.80;99.90;;;;;;5071892;28;20419;-66
2022/11/18 02:58:59;;;;;;;2.80;0.97;;;6.80;99.90;;;;;;5070734;28;20434;-66
2022/11/18 03:01:28;;;;;;;1.47;0.80;;;6.80;99.90;;;;;;5058220;28;20412;-66
2022/11/18 03:03:54;;;;;;;1.10;0.60;;;6.80;99.90;;;;;;5071096;28;20688;-66
2022/11/18 03:06:55;;;;;;;1.47;0.63;;;6.80;99.90;;;;;;5071546;28;20903;-67
2022/11/18 03:09:30;;;;;;;1.33;0.70;;;6.80;99.90;;;;;;5058929;28;20427;-66
2022/11/18 03:12:14;;;;;;;1.20;0.60;;;6.80;99.90;;;;;;5051335;28;20411;-67
2022/11/18 03:15:07;;;;;;;2.90;0.50;;;6.80;99.90;;;;;;5053186;28;20419;-66
2022/11/18 03:17:54;;;;;;;1.53;0.50;;;6.70;99.90;;;;;;5071987;28;20502;-66
2022/11/18 03:20:22;;;;;;;2.70;0.70;;;6.70;99.90;;;;;;5059590;28;21072;-66
2022/11/18 03:23:06;;;;;;;1.10;0.40;;;6.80;99.90;;;;;;5057915;28;20498;-66
2022/11/18 03:25:52;;;;;;;1.30;0.50;;;6.70;99.90;;;;;;5071583;28;20482;-66
2022/11/18 03:28:22;;;;;;;1.10;0.50;;;6.70;99.90;;;;;;5061797;28;20407;-66
2022/11/18 03:31:22;;;;;;;1.20;0.70;;;6.70;99.90;;;;;;5071142;28;20888;-66
2022/11/18 03:33:53;;;;;;;1.10;0.40;;;6.70;99.90;;;;;;5071025;28;20496;-66
2022/11/18 03:36:22;;;;;;;1.10;0.50;;;6.70;99.90;;;;;;5057364;28;20916;-66
2022/11/18 03:38:53;;;;;;;1.10;0.40;;;6.70;99.90;;;;;;5071178;28;21358;-66
2022/11/18 03:41:20;;;;;;;1.10;0.40;;;6.70;99.90;;;;;;5051225;28;20417;-66
2022/11/18 03:44:00;;;;;;;1.60;0.63;;;6.70;99.90;;;;;;5064628;28;20423;-66
2022/11/18 03:46:41;;;;;;;1.30;0.63;;;6.70;99.90;;;;;;5056333;28;20442;-66
2022/11/18 03:49:10;;;;;;;2.23;0.83;;;6.70;99.90;;;;;;5057758;28;20426;-66
2022/11/18 03:51:41;;;;;;;5.50;1.83;;;6.70;99.90;;;;;;5064280;28;20420;-66
2022/11/18 03:54:18;;;;;;;1.83;1.00;;;6.80;99.90;;;;;;5057509;28;20430;-66
2022/11/18 03:56:50;;;;;;;3.10;1.20;;;6.80;99.90;;;;;;5070519;28;20476;-66
2022/11/18 03:59:21;;;;;;;3.27;1.27;;;6.80;99.90;;;;;;5060715;28;20416;-67
2022/11/18 04:02:15;;;;;;;3.10;1.50;;;6.80;99.90;;;;;;5066716;28;20442;-66
2022/11/18 04:04:42;;;;;;;2.70;1.50;;;6.80;99.90;;;;;;5066194;28;20471;-66
2022/11/18 04:07:32;;;;;;;2.23;1.10;;;6.80;99.90;;;;;;5057140;28;20919;-66
2022/11/18 04:10:04;;;;;;;1.63;0.83;;;6.80;99.90;;;;;;5073048;28;20411;-66
2022/11/18 04:12:34;;;;;;;1.80;0.77;;;6.80;99.90;;;;;;5063527;28;20448;-66
2022/11/18 04:15:00;;;;;;;1.53;0.77;;;6.80;99.90;;;;;;5059701;28;20431;-66
2022/11/18 04:17:27;;;;;;;1.37;0.67;;;6.70;99.90;;;;;;5075317;28;20423;-66
2022/11/18 04:19:53;;;;;;;1.10;0.50;;;6.70;99.90;;;;;;5072783;28;20434;-66
2022/11/18 04:22:19;;;;;;;1.20;0.50;;;6.70;99.90;;;;;;5067428;28;20426;-65
2022/11/18 04:24:45;;;;;;;1.10;0.47;;;6.60;99.90;;;;;;5074935;28;20990;-66
2022/11/18 04:27:10;;;;;;;1.10;0.40;;;6.60;99.90;;;;;;5074798;28;20177;-65
2022/11/18 04:29:36;;;;;;;1.20;0.40;;;6.50;99.90;;;;;;5061086;28;20904;-65
2022/11/18 04:32:03;;;;;;;1.10;0.40;;;6.50;99.90;;;;;;5074411;28;20192;-66
2022/11/18 04:34:29;;;;;;;1.10;0.47;;;6.50;99.90;;;;;;5074232;28;20228;-66
2022/11/18 04:36:55;;;;;;;1.00;0.40;;;6.40;99.90;;;;;;5076211;28;20454;-66
2022/11/18 04:39:21;;;;;;;1.23;0.50;;;6.40;99.90;;;;;;5039785;28;20795;-66
2022/11/18 04:41:55;;;;;;;1.50;0.80;;;6.40;99.90;;;;;;5056842;28;20463;-65
2022/11/18 04:44:29;;;;;;;3.37;0.70;;;6.40;99.90;;;;;;5076083;28;20196;-66
2022/11/18 04:46:57;;;;;;;1.47;0.70;;;6.40;99.90;;;;;;5077419;28;20435;-66
2022/11/18 04:49:23;;;;;;;1.20;0.50;;;6.40;99.90;;;;;;5073915;28;20427;-66
2022/11/18 04:51:50;;;;;;;1.30;0.60;;;6.40;99.90;;;;;;5073679;28;20515;-66
2022/11/18 04:54:17;;;;;;;1.10;0.40;;;6.30;99.90;;;;;;5066061;28;20423;-66
2022/11/18 04:56:43;;;;;;;1.30;0.63;;;6.30;99.90;;;;;;5069430;28;20445;-66
2022/11/18 04:59:10;;;;;;;1.50;0.60;;;6.40;99.90;;;;;;5073646;28;20419;-66
2022/11/18 05:01:36;;;;;;;1.70;1.00;;;6.40;99.90;;;;;;5058605;28;20427;-66
2022/11/18 05:04:03;;;;;;;1.80;0.83;;;6.40;99.90;;;;;;5062297;28;20467;-66
2022/11/18 05:06:29;;;;;;;1.30;0.60;;;6.40;99.90;;;;;;5060503;28;20181;-66
2022/11/18 05:08:57;;;;;;;3.20;1.40;;;6.40;99.90;;;;;;5073742;28;20419;-66
2022/11/18 05:14:07;;;;;;;5.00;1.43;;;6.40;99.90;;;;;;5073432;28;20464;-66
2022/11/18 05:16:32;;;;;;;1.30;0.60;;;6.40;99.90;;;;;;5073898;28;20427;-66
2022/11/18 05:18:58;;;;;;;1.10;0.50;;;6.40;99.90;;;;;;5062232;28;20186;-66
2022/11/18 05:21:23;;;;;;;1.77;0.60;;;6.40;99.90;;;;;;5052177;28;20231;-66
2022/11/18 05:23:49;;;;;;;1.30;0.60;;;6.40;99.90;;;;;;5073134;28;20637;-66
2022/11/18 05:26:14;;;;;;;1.40;0.60;;;6.40;99.90;;;;;;5073294;28;20201;-66
2022/11/18 05:28:40;;;;;;;1.97;1.10;;;6.40;99.90;;;;;;5072841;28;20678;-66
2022/11/18 05:31:11;;;;;;;3.27;0.90;;;6.40;99.90;;;;;;5073390;28;20188;-66
2022/11/18 05:33:37;;;;;;;2.87;0.80;;;6.40;99.90;;;;;;5072730;28;20224;-66
2022/11/18 05:36:14;;;;;;;2.43;0.90;;;6.40;99.90;;;;;;5058358;28;20422;-66
2022/11/18 05:38:40;;;;;;;6.50;1.00;;;6.40;99.90;;;;;;5073345;28;20456;-66
2022/11/18 05:41:07;;;;;;;3.00;1.60;;;6.30;99.90;;;;;;5053349;28;20416;-66
2022/11/18 05:43:33;;;;;;;2.20;1.00;;;6.30;99.90;;;;;;5065518;28;20510;-66
2022/11/18 05:45:59;;;;;;;2.63;0.97;;;6.30;99.90;;;;;;5073220;28;20986;-66
2022/11/18 05:48:24;;;;;;;1.90;1.20;;;6.30;99.90;;;;;;5066523;28;20447;-66
2022/11/18 05:50:52;;;;;;;1.40;0.63;;;6.30;99.90;;;;;;5066061;28;20220;-66
2022/11/18 05:53:19;;;;;;;1.20;0.60;;;6.20;99.90;;;;;;5052540;28;20189;-66
2022/11/18 05:56:03;;;;;;;1.20;0.50;;;6.20;99.90;;;;;;5060311;28;20427;-66
2022/11/18 05:58:29;;;;;;;1.10;0.50;;;6.20;99.90;;;;;;5067161;28;20419;-67
2022/11/18 06:00:57;;;;;;;1.10;0.50;;;6.20;99.90;;;;;;5066482;28;20423;-66
2022/11/18 06:03:27;;;;;;;1.10;0.50;;;6.20;99.90;;;;;;5072091;28;20319;-66
2022/11/18 06:05:55;;;;;;;3.10;0.57;;;6.20;99.90;;;;;;5072441;28;21021;-67
2022/11/18 06:08:23;;;;;;;1.20;0.50;;;6.20;99.90;;;;;;5072145;28;20430;-66
2022/11/18 06:10:51;;;;;;;1.10;0.40;;;6.20;99.90;;;;;;5072763;28;20419;-66
2022/11/18 06:13:30;;;;;;;1.10;0.40;;;6.20;99.90;;;;;;5071333;28;20510;-66
2022/11/18 06:15:56;;;;;;;1.10;0.40;;;6.20;99.90;;;;;;5072551;28;20434;-66
2022/11/18 06:18:23;;;;;;;1.30;0.50;;;6.20;99.90;;;;;;5066113;28;20428;-67
2022/11/18 06:20:51;;;;;;;1.10;0.40;;;6.20;99.90;;;;;;5053401;28;20428;-66
2022/11/18 06:23:17;;;;;;;1.10;0.40;;;6.20;99.90;;;;;;5058892;28;20561;-66
2022/11/18 06:25:43;;;;;;;1.10;0.40;;;6.10;99.90;;;;;;5072454;28;20921;-67
2022/11/18 06:28:10;;;;;;;1.10;0.40;;;6.10;99.90;;;;;;5071574;28;20189;-67
2022/11/18 06:30:36;;;;;;;1.80;0.60;;;6.20;99.90;;;;;;5072756;28;20200;-68
2022/11/18 06:33:01;;;;;;;1.30;0.40;;;6.10;99.90;;;;;;5071457;28;20798;-68
2022/11/18 06:35:27;;;;;;;1.10;0.40;;;6.10;99.90;;;;;;5071026;28;20200;-68
2022/11/18 06:37:52;;;;;;;1.07;0.43;;;6.10;99.90;;;;;;5072034;28;20637;-68
2022/11/18 06:40:18;;;;;;;1.10;0.50;;;6.10;99.90;;;;;;5058527;28;20190;-68
2022/11/18 06:45:28;;;;;;;1.03;0.40;;;6.10;99.90;;;;;;5070002;28;20224;-68
2022/11/18 06:48:01;;;;;;;2.70;0.60;;;6.10;99.90;;;;;;5071888;28;20500;-67
2022/11/18 06:50:27;;;;;;;1.20;0.50;;;6.00;99.90;;;;;;5060347;28;20435;-68
2022/11/18 06:52:53;;;;;;;1.37;0.60;;;6.00;99.90;;;;;;5061426;28;20416;-68
2022/11/18 06:55:19;;;;;;;3.57;0.80;;;6.00;99.90;;;;;;5071804;28;20434;-68
2022/11/18 06:57:44;;;;;;;1.60;0.57;;;6.00;99.90;;;;;;5071565;28;20556;-67
2022/11/18 07:00:11;;;;;;;1.90;0.97;;;6.00;99.90;;;;;;5070171;28;20224;-68
2022/11/18 07:02:37;;;;;;;3.40;1.50;;;6.00;99.90;;;;;;5069376;28;20188;-68
2022/11/18 07:05:04;;;;;;;3.30;0.93;;;6.00;99.90;;;;;;5060883;28;20456;-68
2022/11/18 07:07:30;;;;;;;1.30;0.70;;;6.00;99.90;;;;;;5067481;28;20188;-68
2022/11/18 07:09:55;;;;;;;1.40;0.50;;;6.10;99.90;;;;;;5070660;28;20779;-68
2022/11/18 07:12:21;;;;;;;1.10;0.40;;;6.10;99.90;;;;;;5051919;28;20609;-68
2022/11/18 07:14:46;;;;;;;1.10;0.47;;;6.10;99.90;;;;;;5071115;28;20185;-68
2022/11/18 07:17:12;;;;;;;1.57;0.73;;;6.10;99.90;;;;;;5070901;28;20230;-68
2022/11/18 07:19:39;;;;;;;1.10;0.40;;;6.10;99.90;;;;;;5068566;28;20279;-68
2022/11/18 07:22:06;;;;;;;1.27;0.50;;;6.10;99.90;;;;;;5060728;28;20188;-68
2022/11/18 07:24:32;;;;;;;1.20;0.50;;;6.20;99.90;;;;;;5070849;28;20466;-68
2022/11/18 07:26:58;;;;;;;1.60;0.60;;;6.20;99.90;;;;;;5070629;28;20408;-68
2022/11/18 07:29:24;;;;;;;1.20;0.60;;;6.20;99.90;;;;;;5070365;28;20223;-69
2022/11/18 07:31:49;;;;;;;1.10;0.40;;;6.30;99.90;;;;;;5070870;28;20177;-68
2022/11/18 07:34:15;;;;;;;9.80;0.70;;;6.20;99.90;;;;;;5066667;28;20631;-69
2022/11/18 07:36:41;;;;;;;1.20;0.53;;;6.20;99.90;;;;;;5070522;28;20187;-68
2022/11/18 07:39:06;;;;;;;1.30;0.50;;;6.30;99.90;;;;;;5065024;28;20185;-68
2022/11/18 07:41:33;;;;;;;2.43;1.07;;;6.30;99.90;;;;;;5070858;28;20177;-68
2022/11/18 07:44:00;;;;;;;2.07;0.80;;;6.30;99.90;;;;;;5070639;28;20178;-68
2022/11/18 07:46:27;;;;;;;1.20;0.60;;;6.40;99.90;;;;;;5074535;28;20419;-68
2022/11/18 07:48:55;;;;;;;1.40;0.70;;;6.40;99.90;;;;;;5074925;28;20494;-68
2022/11/18 07:51:23;;;;;;;2.70;0.97;;;6.40;99.90;;;;;;5070943;28;20476;-68
2022/11/18 07:53:49;;;;;;;1.60;0.80;;;6.40;99.90;;;;;;5072131;28;20848;-68
2022/11/18 07:56:16;;;;;;;2.20;0.90;;;6.40;99.90;;;;;;5074198;28;20573;-68
2022/11/18 07:58:42;;;;;;;1.43;0.70;;;6.40;99.90;;;;;;5074668;28;20323;-68
2022/11/18 08:01:13;;;;;;;1.60;0.80;;;6.50;99.90;;;;;;5075147;28;20423;-68
2022/11/18 08:03:39;;;;;;;1.20;0.60;;;6.50;99.90;;;;;;5074398;28;20434;-68
2022/11/18 08:06:07;;;;;;;1.77;0.80;;;6.50;99.90;;;;;;5074070;28;20458;-68
2022/11/18 08:08:32;;;;;;;1.83;0.70;;;6.50;99.90;;;;;;5074442;28;20418;-68
2022/11/18 08:11:00;;;;;;;1.30;0.60;;;6.50;99.90;;;;;;5074716;28;20778;-68
2022/11/18 08:13:26;;;;;;;1.60;0.63;;;6.50;99.90;;;;;;5073378;28;20185;-68
2022/11/18 08:15:52;;;;;;;1.20;0.60;;;6.60;99.90;;;;;;5072978;28;20427;-68
2022/11/18 08:18:19;;;;;;;1.20;0.50;;;6.60;99.90;;;;;;5074241;28;20445;-67
2022/11/18 08:20:45;;;;;;;1.87;0.60;;;6.60;99.90;;;;;;5073378;28;20185;-68
2022/11/18 08:23:11;;;;;;;12.37;1.47;;;6.60;99.90;;;;;;5073295;28;20789;-68
2022/11/18 08:25:37;;;;;;;4.60;1.87;;;6.60;99.90;;;;;;5074004;28;20209;-68
2022/11/18 08:28:03;;;;;;;4.57;2.07;;;6.60;99.90;;;;;;5070772;28;20411;-68
2022/11/18 08:30:28;;;;;;;2.60;1.17;;;6.60;99.90;;;;;;5055549;28;20427;-68
2022/11/18 08:32:54;;;;;;;3.27;0.93;;;6.60;99.90;;;;;;5072902;28;20188;-68
2022/11/18 08:35:20;;;;;;;4.27;1.00;;;6.60;99.90;;;;;;5072976;28;20246;-68
2022/11/18 08:37:45;;;;;;;1.20;0.50;;;6.70;99.90;;;;;;5074257;28;20208;-67
2022/11/18 08:40:11;;;;;;;1.40;0.60;;;6.70;99.90;;;;;;5072954;28;20216;-68
2022/11/18 08:42:37;;;;;;;1.10;0.47;;;6.70;99.90;;;;;;5073673;28;20189;-68
2022/11/18 08:45:07;;;;;;;1.10;0.40;;;6.70;99.90;;;;;;5073406;28;20209;-68
2022/11/18 08:47:33;;;;;;;1.10;0.50;;;6.60;99.90;;;;;;5073562;28;20260;-68
2022/11/18 08:49:58;;;;;;;3.30;0.83;;;6.60;99.90;;;;;;5073789;28;20502;-68
2022/11/18 08:52:24;;;;;;;1.10;0.50;;;6.60;99.90;;;;;;5071068;28;20907;-68
2022/11/18 08:54:49;;;;;;;1.50;0.50;;;6.60;99.90;;;;;;5060466;28;20269;-68
2022/11/18 08:57:15;;;;;;;1.10;0.50;;;6.70;99.90;;;;;;5073024;28;20181;-68
2022/11/18 08:59:41;;;;;;;1.37;0.63;;;6.70;99.90;;;;;;5060325;28;20186;-68
2022/11/18 09:02:13;;;;;;;1.20;0.50;;;6.70;99.90;;;;;;5072535;28;20185;-68
2022/11/18 09:04:39;;;;;;;1.30;0.60;;;6.70;99.90;;;;;;5073354;28;20220;-67
2022/11/18 09:07:05;;;;;;;1.50;0.60;;;6.70;99.90;;;;;;5072288;28;20428;-67
2022/11/18 09:09:30;;;;;;;1.30;0.50;;;6.70;99.90;;;;;;5072586;28;20178;-67
2022/11/18 09:11:56;;;;;;;1.53;0.60;;;6.70;99.90;;;;;;5072696;28;20614;-67
2022/11/18 09:14:21;;;;;;;1.47;0.57;;;6.70;99.90;;;;;;5070662;28;20750;-67
2022/11/18 09:16:47;;;;;;;1.70;0.57;;;6.70;99.90;;;;;;5069167;28;20223;-67
2022/11/18 09:19:14;;;;;;;1.80;0.80;;;6.70;99.90;;;;;;5065553;28;21800;-68
2022/11/18 09:21:40;;;;;;;1.10;0.40;;;6.70;99.90;;;;;;5061608;28;20181;-67
2022/11/18 09:24:06;;;;;;;1.20;0.50;;;6.70;99.90;;;;;;5065172;28;20485;-68
2022/11/18 09:26:32;;;;;;;1.23;0.60;;;6.80;99.90;;;;;;5072034;28;20272;-69
2022/11/18 09:28:57;;;;;;;1.27;0.60;;;6.90;99.90;;;;;;5072873;28;20907;-69
2022/11/18 09:31:23;;;;;;;2.00;0.97;;;6.90;99.90;;;;;;5073062;28;20210;-68
2022/11/18 09:33:49;;;;;;;1.20;0.50;;;7.00;99.90;;;;;;5072374;28;20197;-68
2022/11/18 09:36:18;;;;;;;1.30;0.70;;;7.00;99.90;;;;;;5060527;28;20181;-68
2022/11/18 09:38:44;;;;;;;1.10;0.50;;;7.10;99.90;;;;;;5070612;28;20170;-68
2022/11/18 09:41:12;;;;;;;2.33;1.00;;;7.10;99.90;;;;;;5064580;28;21001;-68
2022/11/18 09:44:00;;;;;;;1.70;0.60;;;7.10;99.90;;;;;;5066301;28;20185;-68
2022/11/18 09:46:29;;;;;;;1.53;0.77;;;7.10;99.90;;;;;;5060350;28;20412;-67
2022/11/18 09:49:11;;;;;;;7.90;1.07;;;7.20;99.90;;;;;;5070048;28;20491;-67
2022/11/18 09:51:40;;;;;;;1.37;0.60;;;7.20;99.90;;;;;;5070765;28;20944;-67
2022/11/18 09:54:21;;;;;;;1.40;0.63;;;7.30;99.90;;;;;;5054521;28;20419;-68
2022/11/18 09:56:49;;;;;;;1.33;0.63;;;7.30;99.90;;;;;;5071806;28;20411;-68
2022/11/18 09:59:18;;;;;;;1.60;0.90;;;7.30;99.90;;;;;;5071731;28;20429;-68
2022/11/18 10:01:44;;;;;;;2.57;1.40;;;7.30;99.90;;;;;;5070973;28;20444;-67
2022/11/18 10:04:20;;;;;;;1.10;0.50;;;7.40;99.90;;;;;;5071224;28;20463;-67
2022/11/18 10:06:47;;;;;;;1.50;0.70;;;7.60;99.90;;;;;;5068807;28;20411;-68
2022/11/18 10:09:34;;;;;;;3.67;0.87;;;7.60;99.90;;;;;;5071825;28;20423;-67
2022/11/18 10:12:06;;;;;;;1.30;0.53;;;7.70;99.90;;;;;;5070692;28;20502;-67
2022/11/18 10:14:38;;;;;;;1.43;0.60;;;7.90;99.90;;;;;;5071418;28;20427;-67
2022/11/18 10:17:26;;;;;;;1.30;0.60;;;7.90;99.90;;;;;;5071597;28;20427;-67
2022/11/18 10:20:01;;;;;;;1.97;0.73;;;8.00;99.90;;;;;;5067394;28;20458;-67
2022/11/18 10:22:41;;;;;;;2.13;0.77;;;8.00;99.90;;;;;;5064750;28;20501;-67
2022/11/18 10:25:13;;;;;;;2.30;0.77;;;8.00;99.90;;;;;;5063769;28;20471;-67
2022/11/18 10:27:41;;;;;;;2.40;1.00;;;8.00;99.90;;;;;;5071764;28;20494;-68
2022/11/18 10:30:20;;;;;;;3.93;1.17;;;8.10;99.90;;;;;;5071795;28;20460;-67
2022/11/18 10:33:23;;;;;;;1.60;0.70;;;8.10;99.90;;;;;;5071459;28;20415;-67
2022/11/18 10:35:49;;;;;;;1.73;0.80;;;8.20;99.90;;;;;;5032353;28;20438;-67
2022/11/18 10:38:18;;;;;;;1.40;0.73;;;8.30;99.90;;;;;;5071084;28;20408;-67
2022/11/18 10:40:56;;;;;;;3.20;0.97;;;8.30;99.90;;;;;;5067768;28;20224;-67
2022/11/18 10:43:44;;;;;;;1.57;0.83;;;8.40;99.90;;;;;;5050983;28;20408;-67
2022/11/18 10:46:24;;;;;;;1.87;0.80;;;8.30;99.90;;;;;;5067694;28;20459;-67
2022/11/18 10:49:08;;;;;;;1.50;0.70;;;8.30;99.90;;;;;;5071267;28;20506;-67
2022/11/18 10:51:35;;;;;;;1.20;0.60;;;8.20;99.90;;;;;;5070587;28;20943;-68
2022/11/18 10:54:18;;;;;;;4.37;0.80;;;8.20;99.90;;;;;;5071122;28;20412;-67
2022/11/18 10:56:50;;;;;;;1.50;0.57;;;8.10;99.90;;;;;;5071086;28;20420;-67
2022/11/18 10:59:31;;;;;;;1.20;0.50;;;8.00;99.90;;;;;;5061594;28;20423;-67
2022/11/18 11:02:20;;;;;;;1.30;0.60;;;8.00;99.90;;;;;;5070770;28;20422;-67
2022/11/18 11:04:48;;;;;;;1.20;0.50;;;7.80;99.90;;;;;;5065625;28;20456;-67
2022/11/18 11:07:33;;;;;;;2.20;1.00;;;7.80;99.90;;;;;;5069991;28;20411;-67
2022/11/18 11:10:05;;;;;;;1.60;0.70;;;7.80;99.90;;;;;;5053076;28;20747;-68
2022/11/18 11:12:45;;;;;;;1.50;0.60;;;7.70;99.90;;;;;;5067223;28;20469;-67
2022/11/18 11:15:38;;;;;;;2.00;0.87;;;7.70;99.90;;;;;;5067587;28;20442;-67
2022/11/18 11:18:41;;;;;;;1.30;0.50;;;7.70;99.90;;;;;;5055055;28;20426;-67
2022/11/18 11:21:15;;;;;;;1.20;0.50;;;7.80;99.90;;;;;;5062989;28;20415;-67
2022/11/18 11:23:41;;;;;;;2.30;0.80;;;7.80;99.90;;;;;;5070885;28;20411;-67
2022/11/18 11:26:34;;;;;;;1.80;0.60;;;7.80;99.90;;;;;;5069319;28;20462;-67
2022/11/18 11:29:35;;;;;;;1.80;0.80;;;7.90;99.90;;;;;;5070692;28;20416;-67
2022/11/18 11:32:26;;;;;;;4.73;1.20;;;8.00;99.90;;;;;;5061269;28;21110;-68
2022/11/18 11:35:00;;;;;;;1.27;0.67;;;8.00;99.90;;;;;;5058709;28;20828;-68
2022/11/18 11:37:43;;;;;;;1.37;0.70;;;8.00;99.90;;;;;;5070727;28;20453;-67
2022/11/18 11:40:44;;;;;;;1.97;0.63;;;8.10;99.90;;;;;;5069743;28;20439;-68
2022/11/18 11:43:18;;;;;;;1.97;0.70;;;8.20;99.90;;;;;;5060663;28;20411;-67
2022/11/18 11:46:11;;;;;;;1.83;1.07;;;8.30;99.90;;;;;;5064466;28;20499;-68
2022/11/18 11:48:57;;;;;;;1.60;0.63;;;8.30;99.90;;;;;;5057161;28;20400;-67
2022/11/18 11:51:41;;;;;;;1.33;0.60;;;8.40;99.90;;;;;;5066416;28;20424;-68
2022/11/18 11:54:06;;;;;;;1.33;0.70;;;8.50;99.90;;;;;;5057691;28;20446;-68
2022/11/18 11:56:51;;;;;;;4.60;0.90;;;8.40;99.90;;;;;;5070576;28;20451;-68
2022/11/18 11:59:57;;;;;;;2.90;0.50;;;8.40;99.90;;;;;;5070350;28;20181;-68
2022/11/18 12:02:28;;;;;;;1.17;0.50;;;8.40;99.90;;;;;;5021368;28;20427;-68
2022/11/18 12:04:59;;;;;;;1.23;0.60;;;8.40;99.90;;;;;;5070338;28;20955;-68
2022/11/18 12:07:29;;;;;;;1.10;0.40;;;8.40;99.90;;;;;;5070382;28;20418;-68
2022/11/18 12:10:08;;;;;;;1.40;0.50;;;8.40;99.90;;;;;;5070743;28;20422;-64
2022/11/18 12:12:54;;;;;;;1.73;0.70;;;8.50;99.90;;;;;;5070249;28;20411;-67
2022/11/18 12:15:58;;;;;;;1.73;0.70;;;8.50;99.90;;;;;;5069690;28;20790;-68
2022/11/18 12:18:45;;;;;;;3.10;0.73;;;8.50;99.90;;;;;;5070040;28;20713;-68
2022/11/18 12:21:43;;;;;;;2.30;0.87;;;8.40;99.90;;;;;;5039785;28;20498;-67
2022/11/18 12:24:41;;;;;;;1.10;0.40;;;8.40;99.90;;;;;;5069994;28;20415;-67
2022/11/18 12:27:29;;;;;;;2.23;0.90;;;8.40;99.90;;;;;;5051716;28;20434;-67
2022/11/18 12:29:58;;;;;;;3.10;0.50;;;8.30;99.90;;;;;;5069108;28;20407;-67
2022/11/18 12:32:30;;;;;;;2.13;0.70;;;8.30;99.90;;;;;;5070920;28;20442;-67
2022/11/18 12:35:04;;;;;;;1.47;0.60;;;8.20;99.90;;;;;;5072229;28;20439;-67
2022/11/18 12:37:29;;;;;;;1.40;0.70;;;8.30;99.90;;;;;;5072548;28;20951;-67
2022/11/18 12:39:55;;;;;;;1.20;0.50;;;8.40;99.90;;;;;;5074054;28;20415;-67
2022/11/18 12:45:39;;;;;;;2.40;0.97;;;8.50;99.90;;;;;;5072007;28;20462;-67
2022/11/18 12:48:37;;;;;;;1.30;0.70;;;8.50;99.90;;;;;;5073848;28;20408;-66
2022/11/18 12:51:15;;;;;;;1.97;1.10;;;8.60;99.90;;;;;;5073557;28;20993;-67
2022/11/18 12:53:43;;;;;;;2.90;0.60;;;8.60;99.90;;;;;;5072959;28;20403;-67
2022/11/18 12:56:10;;;;;;;1.50;0.60;;;8.70;99.90;;;;;;5073241;28;20418;-67
2022/11/18 12:58:36;;;;;;;1.20;0.50;;;8.70;99.90;;;;;;5073245;28;20502;-67
2022/11/18 13:01:09;;;;;;;2.07;0.50;;;8.70;99.90;;;;;;5073738;28;20517;-67
2022/11/18 13:03:35;;;;;;;2.63;0.80;;;8.60;99.90;;;;;;5073029;28;20264;-67
2022/11/18 13:06:32;;;;;;;3.10;0.50;;;8.50;99.90;;;;;;5071643;28;20459;-67
2022/11/18 13:09:00;;;;;;;1.20;0.57;;;8.40;99.90;;;;;;5051679;28;20431;-68
2022/11/18 13:11:44;;;;;;;1.27;0.70;;;8.40;99.90;;;;;;5072914;28;20813;-67
2022/11/18 13:20:32;;;;;;;1.50;0.83;;;8.10;99.90;;;;;;5053743;28;20403;-68
2022/11/18 13:26:32;;;;;;;1.20;0.60;;;8.10;99.90;;;;;;5071048;28;20528;-68
2022/11/18 13:29:04;;;;;;;3.53;0.73;;;8.10;99.90;;;;;;5060072;28;21239;-68
2022/11/18 13:32:10;;;;;;;1.10;0.50;;;8.10;99.90;;;;;;5071351;28;20492;-68
2022/11/18 13:35:09;;;;;;;1.30;0.60;;;8.20;99.90;;;;;;5070229;28;20431;-65
2022/11/18 13:37:34;;;;;;;4.80;0.70;;;8.20;99.90;;;;;;5064968;28;20439;-66
2022/11/18 13:40:00;;;;;;;2.27;0.80;;;8.20;99.90;;;;;;5071528;28;20427;-66
2022/11/18 13:42:30;;;;;;;1.77;0.73;;;8.20;99.90;;;;;;5069445;28;20185;-66
2022/11/18 13:44:58;;;;;;;1.10;0.50;;;8.20;99.90;;;;;;5070634;28;20771;-66
2022/11/18 13:47:44;;;;;;;1.90;0.83;;;8.20;99.90;;;;;;5069368;28;20426;-66